Time;durP1;ratioP1;P1;durP2;ratioP2;P2;SDS_P1;SDS_P2;PMS_P1;PMS_P2;Temp;Humidity;BMP_temperature;BMP_pressure;BME280_temperature;BME280_humidity;BME280_pressure;Samples;Min_cycle;Max_cycle;Signal;HPM_P1;HPM_P2
2022/02/22 00:00:17;;;;;;;;;;;;;;;;;;6249096;23;19915;-73
2022/02/22 00:02:42;;;;;;;;;;;;;;;;;;6250139;23;19903;-73
2022/02/22 00:05:08;;;;;;;;;;;;;;;;;;6249803;23;20356;-73
2022/02/22 00:07:34;;;;;;;;;;;;;;;;;;6249768;23;19966;-73
2022/02/22 00:10:00;;;;;;;;;;;;;;;;;;6249039;23;19911;-73
2022/02/22 00:12:26;;;;;;;;;;;;;;;;;;6249980;23;20297;-73
2022/02/22 00:14:51;;;;;;;;;;;;;;;;;;6249726;23;19900;-73
2022/02/22 00:17:17;;;;;;;;;;;;;;;;;;6222745;23;20345;-73
2022/02/22 00:19:43;;;;;;;;;;;;;;;;;;6249532;23;19942;-73
2022/02/22 00:22:08;;;;;;;;;;;;;;;;;;6249644;23;20346;-73
2022/02/22 00:24:34;;;;;;;;;;;;;;;;;;6249848;23;19903;-73
2022/02/22 00:27:00;;;;;;;;;;;;;;;;;;6249617;23;20295;-73
2022/02/22 00:29:26;;;;;;;;;;;;;;;;;;6222852;23;19899;-73
2022/02/22 00:31:51;;;;;;;;;;;;;;;;;;6222896;23;20290;-73
2022/02/22 00:34:17;;;;;;;;;;;;;;;;;;6249809;23;19942;-73
2022/02/22 00:36:44;;;;;;;;;;;;;;;;;;6249470;23;19956;-73
2022/02/22 00:39:09;;;;;;;;;;;;;;;;;;6249355;23;19907;-73
2022/02/22 00:41:35;;;;;;;;;;;;;;;;;;6249917;23;20345;-73
2022/02/22 00:44:01;;;;;;;;;;;;;;;;;;6249419;23;19899;-72
2022/02/22 00:46:27;;;;;;;;;;;;;;;;;;6249553;23;19900;-72
2022/02/22 00:48:52;;;;;;;;;;;;;;;;;;6248982;23;19978;-72
2022/02/22 00:51:18;;;;;;;;;;;;;;;;;;6249278;23;19899;-72
2022/02/22 00:53:44;;;;;;;;;;;;;;;;;;6249387;23;19900;-72
2022/02/22 00:56:09;;;;;;;;;;;;;;;;;;6249321;23;19900;-72
2022/02/22 00:58:35;;;;;;;;;;;;;;;;;;6221738;23;20301;-72
2022/02/22 01:01:01;;;;;;;;;;;;;;;;;;6249372;23;20014;-73
2022/02/22 01:03:26;;;;;;;;;;;;;;;;;;6249040;23;19900;-72
2022/02/22 01:05:52;;;;;;;;;;;;;;;;;;6248399;23;19907;-72
2022/02/22 01:08:18;;;;;;;;;;;;;;;;;;6252203;23;19907;-73
2022/02/22 01:10:43;;;;;;;;;;;;;;;;;;6248878;23;20201;-73
2022/02/22 01:13:09;;;;;;;;;;;;;;;;;;6248408;23;19971;-73
2022/02/22 01:15:35;;;;;;;;;;;;;;;;;;6221665;23;19966;-73
2022/02/22 01:18:00;;;;;;;;;;;;;;;;;;6248241;23;19915;-73
2022/02/22 01:20:26;;;;;;;;;;;;;;;;;;6248695;23;19915;-73
2022/02/22 01:22:54;;;;;;;;;;;;;;;;;;6221247;23;19907;-73
2022/02/22 01:25:20;;;;;;;;;;;;;;;;;;6248203;23;20265;-73
2022/02/22 01:27:46;;;;;;;;;;;;;;;;;;6247451;23;19899;-72
2022/02/22 01:30:11;;;;;;;;;;;;;;;;;;6247318;23;19991;-73
2022/02/22 01:32:37;;;;;;;;;;;;;;;;;;6246768;23;19900;-73
2022/02/22 01:35:03;;;;;;;;;;;;;;;;;;6221353;23;19977;-73
2022/02/22 01:37:28;;;;;;;;;;;;;;;;;;6248250;23;19900;-73
2022/02/22 01:39:54;;;;;;;;;;;;;;;;;;6248547;23;19908;-72
2022/02/22 01:42:20;;;;;;;;;;;;;;;;;;6221742;23;19918;-73
2022/02/22 01:44:45;;;;;;;;;;;;;;;;;;6247701;23;19919;-72
2022/02/22 01:47:12;;;;;;;;;;;;;;;;;;6247807;23;20298;-73
2022/02/22 01:49:38;;;;;;;;;;;;;;;;;;6216592;23;19895;-73
2022/02/22 01:52:04;;;;;;;;;;;;;;;;;;6248462;23;19900;-72
2022/02/22 01:54:30;;;;;;;;;;;;;;;;;;6221081;23;19899;-72
2022/02/22 01:56:55;;;;;;;;;;;;;;;;;;6220607;23;19906;-72
2022/02/22 01:59:21;;;;;;;;;;;;;;;;;;6248004;23;19953;-73
2022/02/22 02:01:47;;;;;;;;;;;;;;;;;;6247214;23;20317;-72
2022/02/22 02:04:12;;;;;;;;;;;;;;;;;;6247019;23;19903;-72
2022/02/22 02:06:38;;;;;;;;;;;;;;;;;;6247330;23;19967;-73
2022/02/22 02:09:04;;;;;;;;;;;;;;;;;;6220371;23;19900;-73
2022/02/22 02:11:30;;;;;;;;;;;;;;;;;;6247937;23;19899;-73
2022/02/22 02:13:55;;;;;;;;;;;;;;;;;;6247301;23;19899;-72
2022/02/22 02:16:24;;;;;;;;;;;;;;;;;;6220890;23;19975;-73
2022/02/22 02:18:52;;;;;;;;;;;;;;;;;;6247940;23;19908;-73
2022/02/22 02:21:18;;;;;;;;;;;;;;;;;;6247128;23;19900;-72
2022/02/22 02:23:44;;;;;;;;;;;;;;;;;;6247581;23;19900;-72
2022/02/22 02:26:10;;;;;;;;;;;;;;;;;;6247575;23;19899;-73
2022/02/22 02:28:36;;;;;;;;;;;;;;;;;;6247544;23;19899;-73
2022/02/22 02:31:01;;;;;;;;;;;;;;;;;;6249206;23;20226;-73
2022/02/22 02:33:27;;;;;;;;;;;;;;;;;;6220514;23;19906;-73
2022/02/22 02:35:53;;;;;;;;;;;;;;;;;;6246774;23;19903;-73
2022/02/22 02:38:18;;;;;;;;;;;;;;;;;;6219795;23;19907;-73
2022/02/22 02:40:44;;;;;;;;;;;;;;;;;;6246621;23;20318;-73
2022/02/22 02:43:10;;;;;;;;;;;;;;;;;;6220252;23;20214;-73
2022/02/22 02:45:36;;;;;;;;;;;;;;;;;;6194643;23;19927;-73
2022/02/22 02:48:01;;;;;;;;;;;;;;;;;;6245725;23;19903;-74
2022/02/22 02:50:27;;;;;;;;;;;;;;;;;;6219300;23;20191;-74
2022/02/22 02:52:53;;;;;;;;;;;;;;;;;;6219081;23;19908;-73
2022/02/22 02:55:19;;;;;;;;;;;;;;;;;;6245337;23;19923;-73
2022/02/22 02:57:44;;;;;;;;;;;;;;;;;;6245185;23;19975;-72
2022/02/22 03:00:11;;;;;;;;;;;;;;;;;;6246904;23;19907;-72
2022/02/22 03:02:37;;;;;;;;;;;;;;;;;;6218567;23;20148;-72
2022/02/22 03:05:03;;;;;;;;;;;;;;;;;;6214958;23;20252;-73
2022/02/22 03:07:29;;;;;;;;;;;;;;;;;;6215179;23;20254;-72
2022/02/22 03:09:54;;;;;;;;;;;;;;;;;;6245909;23;19954;-72
2022/02/22 03:12:20;;;;;;;;;;;;;;;;;;6241372;23;19927;-73
2022/02/22 03:14:48;;;;;;;;;;;;;;;;;;6244888;23;19899;-73
2022/02/22 03:17:13;;;;;;;;;;;;;;;;;;6220019;23;19906;-72
2022/02/22 03:19:39;;;;;;;;;;;;;;;;;;6220222;23;19908;-73
2022/02/22 03:22:05;;;;;;;;;;;;;;;;;;6216713;23;19931;-72
2022/02/22 03:24:31;;;;;;;;;;;;;;;;;;6245333;23;20210;-73
2022/02/22 03:26:56;;;;;;;;;;;;;;;;;;6250224;23;19900;-72
2022/02/22 03:29:22;;;;;;;;;;;;;;;;;;6225395;23;19903;-73
2022/02/22 03:31:48;;;;;;;;;;;;;;;;;;6224542;23;20260;-74
2022/02/22 03:34:14;;;;;;;;;;;;;;;;;;6221253;23;19900;-73
2022/02/22 03:36:41;;;;;;;;;;;;;;;;;;6199560;23;19900;-73
2022/02/22 03:39:07;;;;;;;;;;;;;;;;;;6199726;23;19915;-73
2022/02/22 03:41:33;;;;;;;;;;;;;;;;;;6201836;23;19912;-73
2022/02/22 03:43:59;;;;;;;;;;;;;;;;;;6225168;23;19899;-73
2022/02/22 03:46:26;;;;;;;;;;;;;;;;;;6197348;23;20324;-72
2022/02/22 03:48:52;;;;;;;;;;;;;;;;;;6223639;23;19907;-74
2022/02/22 03:51:18;;;;;;;;;;;;;;;;;;6250005;23;20257;-73
2022/02/22 03:53:44;;;;;;;;;;;;;;;;;;6249890;23;19899;-73
2022/02/22 03:56:10;;;;;;;;;;;;;;;;;;6224293;23;19900;-74
2022/02/22 03:58:36;;;;;;;;;;;;;;;;;;6221765;23;19961;-72
2022/02/22 04:01:02;;;;;;;;;;;;;;;;;;6250174;23;19900;-72
2022/02/22 04:03:28;;;;;;;;;;;;;;;;;;6224180;23;19900;-72
2022/02/22 04:05:54;;;;;;;;;;;;;;;;;;6225860;23;19907;-73
2022/02/22 04:08:19;;;;;;;;;;;;;;;;;;6198143;23;20309;-73
2022/02/22 04:10:45;;;;;;;;;;;;;;;;;;6249548;23;19899;-73
2022/02/22 04:13:11;;;;;;;;;;;;;;;;;;6250436;23;19907;-74
2022/02/22 04:15:37;;;;;;;;;;;;;;;;;;6222908;23;19904;-74
2022/02/22 04:18:03;;;;;;;;;;;;;;;;;;6222028;23;19970;-73
2022/02/22 04:20:29;;;;;;;;;;;;;;;;;;6248014;23;20306;-73
2022/02/22 04:22:54;;;;;;;;;;;;;;;;;;6220581;23;19899;-73
2022/02/22 04:25:20;;;;;;;;;;;;;;;;;;6248833;23;20239;-72
2022/02/22 04:27:46;;;;;;;;;;;;;;;;;;6220689;23;19900;-72
2022/02/22 04:30:12;;;;;;;;;;;;;;;;;;6247131;23;20012;-73
2022/02/22 04:32:38;;;;;;;;;;;;;;;;;;6218409;23;19907;-74
2022/02/22 04:35:05;;;;;;;;;;;;;;;;;;6245489;23;20213;-73
2022/02/22 04:37:32;;;;;;;;;;;;;;;;;;6221947;23;19957;-73
2022/02/22 04:39:58;;;;;;;;;;;;;;;;;;6247628;23;19969;-74
2022/02/22 04:42:24;;;;;;;;;;;;;;;;;;6195406;23;19987;-74
2022/02/22 04:44:50;;;;;;;;;;;;;;;;;;6219794;23;19946;-73
2022/02/22 04:47:16;;;;;;;;;;;;;;;;;;6196542;23;19903;-74
2022/02/22 04:49:41;;;;;;;;;;;;;;;;;;6220085;23;20342;-73
2022/02/22 04:52:08;;;;;;;;;;;;;;;;;;6247672;23;20287;-73
2022/02/22 04:54:33;;;;;;;;;;;;;;;;;;6248663;23;19942;-74
2022/02/22 04:56:59;;;;;;;;;;;;;;;;;;6251378;23;19899;-74
2022/02/22 04:59:25;;;;;;;;;;;;;;;;;;6225562;23;19915;-74
2022/02/22 05:01:51;;;;;;;;;;;;;;;;;;6224238;23;19970;-74
2022/02/22 05:04:16;;;;;;;;;;;;;;;;;;6222642;23;19971;-74
2022/02/22 05:06:42;;;;;;;;;;;;;;;;;;6249429;23;19903;-75
2022/02/22 05:09:08;;;;;;;;;;;;;;;;;;6225813;23;19900;-74
2022/02/22 05:11:34;;;;;;;;;;;;;;;;;;6222831;23;19907;-74
2022/02/22 05:14:00;;;;;;;;;;;;;;;;;;6222789;23;19942;-75
2022/02/22 05:16:26;;;;;;;;;;;;;;;;;;6250252;23;19907;-73
2022/02/22 05:18:52;;;;;;;;;;;;;;;;;;6248495;23;19954;-75
2022/02/22 05:21:18;;;;;;;;;;;;;;;;;;6222740;23;19906;-75
2022/02/22 05:23:43;;;;;;;;;;;;;;;;;;6249328;23;19904;-74
2022/02/22 05:26:16;;;;;;;;;;;;;;;;;;6200658;23;19899;-74
2022/02/22 05:28:45;;;;;;;;;;;;;;;;;;6199956;23;19900;-75
2022/02/22 05:31:10;;;;;;;;;;;;;;;;;;6225491;23;19907;-75
2022/02/22 05:33:36;;;;;;;;;;;;;;;;;;6202931;23;20180;-74
2022/02/22 05:36:02;;;;;;;;;;;;;;;;;;6252369;23;19937;-74
2022/02/22 05:38:28;;;;;;;;;;;;;;;;;;6199537;23;19982;-74
2022/02/22 05:40:54;;;;;;;;;;;;;;;;;;6198391;23;20163;-74
2022/02/22 05:43:20;;;;;;;;;;;;;;;;;;6223348;23;19899;-74
2022/02/22 05:45:46;;;;;;;;;;;;;;;;;;6224721;23;19899;-74
2022/02/22 05:48:12;;;;;;;;;;;;;;;;;;6198193;23;19899;-74
2022/02/22 05:50:38;;;;;;;;;;;;;;;;;;6247654;23;19973;-73
2022/02/22 05:53:04;;;;;;;;;;;;;;;;;;6219555;23;20260;-75
2022/02/22 05:55:30;;;;;;;;;;;;;;;;;;6195883;23;20497;-73
2022/02/22 05:57:56;;;;;;;;;;;;;;;;;;6218666;23;19931;-74
2022/02/22 06:00:23;;;;;;;;;;;;;;;;;;6215969;23;19907;-73
2022/02/22 06:02:49;;;;;;;;;;;;;;;;;;6194734;23;19904;-73
2022/02/22 06:05:15;;;;;;;;;;;;;;;;;;6246890;23;19906;-74
2022/02/22 06:07:41;;;;;;;;;;;;;;;;;;6194853;23;19907;-75
2022/02/22 06:10:07;;;;;;;;;;;;;;;;;;6196247;23;19899;-73
2022/02/22 06:12:40;;;;;;;;;;;;;;;;;;6192042;23;19903;-74
2022/02/22 06:15:06;;;;;;;;;;;;;;;;;;6192913;23;19903;-73
2022/02/22 06:17:33;;;;;;;;;;;;;;;;;;6192017;23;20194;-74
2022/02/22 06:19:59;;;;;;;;;;;;;;;;;;6244803;23;19942;-73
2022/02/22 06:22:26;;;;;;;;;;;;;;;;;;6193279;23;19930;-74
2022/02/22 06:24:53;;;;;;;;;;;;;;;;;;6196521;23;20336;-74
2022/02/22 06:27:19;;;;;;;;;;;;;;;;;;6218291;23;19923;-74
2022/02/22 06:29:45;;;;;;;;;;;;;;;;;;6194361;23;19905;-74
2022/02/22 06:32:12;;;;;;;;;;;;;;;;;;6193584;23;19990;-73
2022/02/22 06:34:39;;;;;;;;;;;;;;;;;;6194552;23;19954;-74
2022/02/22 06:37:05;;;;;;;;;;;;;;;;;;6218029;23;20294;-74
2022/02/22 06:39:33;;;;;;;;;;;;;;;;;;6218363;23;20057;-73
2022/02/22 06:42:00;;;;;;;;;;;;;;;;;;6193688;23;20310;-73
2022/02/22 06:44:27;;;;;;;;;;;;;;;;;;6195632;23;19899;-74
2022/02/22 06:46:53;;;;;;;;;;;;;;;;;;6196005;23;19904;-74
2022/02/22 06:49:20;;;;;;;;;;;;;;;;;;6220705;23;19899;-74
2022/02/22 06:51:46;;;;;;;;;;;;;;;;;;6197498;23;19899;-74
2022/02/22 06:54:14;;;;;;;;;;;;;;;;;;6195513;23;20290;-74
2022/02/22 06:56:40;;;;;;;;;;;;;;;;;;6221954;23;19937;-75
2022/02/22 06:59:14;;;;;;;;;;;;;;;;;;6247546;23;19915;-74
2022/02/22 07:01:46;;;;;;;;;;;;;;;;;;6220498;23;19956;-74
2022/02/22 07:04:12;;;;;;;;;;;;;;;;;;6196061;23;19907;-74
2022/02/22 07:06:40;;;;;;;;;;;;;;;;;;6220725;23;19922;-74
2022/02/22 07:09:09;;;;;;;;;;;;;;;;;;6223008;23;20206;-74
2022/02/22 07:11:37;;;;;;;;;;;;;;;;;;6197031;23;19900;-74
2022/02/22 07:14:03;;;;;;;;;;;;;;;;;;6221579;23;19957;-74
2022/02/22 07:16:32;;;;;;;;;;;;;;;;;;6196861;23;19911;-73
2022/02/22 07:19:09;;;;;;;;;;;;;;;;;;6223479;23;19942;-73
2022/02/22 07:21:37;;;;;;;;;;;;;;;;;;6221154;23;19904;-73
2022/02/22 07:24:08;;;;;;;;;;;;;;;;;;6248570;23;19907;-73
2022/02/22 07:26:34;;;;;;;;;;;;;;;;;;6196511;23;19899;-73
2022/02/22 07:29:00;;;;;;;;;;;;;;;;;;6197098;23;19903;-74
2022/02/22 07:31:27;;;;;;;;;;;;;;;;;;6220719;23;19900;-73
2022/02/22 07:33:56;;;;;;;;;;;;;;;;;;6219476;23;19926;-73
2022/02/22 07:36:22;;;;;;;;;;;;;;;;;;6195756;23;20206;-73
2022/02/22 07:38:49;;;;;;;;;;;;;;;;;;6221149;23;19975;-73
2022/02/22 07:41:22;;;;;;;;;;;;;;;;;;6196655;23;19908;-73
2022/02/22 07:43:48;;;;;;;;;;;;;;;;;;6196919;23;19935;-74
2022/02/22 07:46:17;;;;;;;;;;;;;;;;;;6195971;23;19900;-73
2022/02/22 07:48:43;;;;;;;;;;;;;;;;;;6221258;23;19904;-74
2022/02/22 07:51:08;;;;;;;;;;;;;;;;;;6222718;23;19926;-73
2022/02/22 07:53:34;;;;;;;;;;;;;;;;;;6221903;23;19971;-75
2022/02/22 07:56:04;;;;;;;;;;;;;;;;;;6220505;23;19904;-74
2022/02/22 07:58:30;;;;;;;;;;;;;;;;;;6247563;23;19961;-74
2022/02/22 08:00:56;;;;;;;;;;;;;;;;;;6248050;23;20257;-73
2022/02/22 08:03:21;;;;;;;;;;;;;;;;;;6248155;23;19899;-74
2022/02/22 08:05:47;;;;;;;;;;;;;;;;;;6220378;23;19977;-73
2022/02/22 08:08:13;;;;;;;;;;;;;;;;;;6248462;23;19900;-74
2022/02/22 08:10:38;;;;;;;;;;;;;;;;;;6222406;23;20332;-74
2022/02/22 08:13:04;;;;;;;;;;;;;;;;;;6221471;23;19962;-75
2022/02/22 08:15:31;;;;;;;;;;;;;;;;;;6248218;23;19903;-74
2022/02/22 08:17:57;;;;;;;;;;;;;;;;;;6221932;23;19906;-74
2022/02/22 08:20:23;;;;;;;;;;;;;;;;;;6196008;23;19923;-74
2022/02/22 08:22:49;;;;;;;;;;;;;;;;;;6221940;23;19965;-74
2022/02/22 08:25:15;;;;;;;;;;;;;;;;;;6247398;23;19927;-74
2022/02/22 08:27:41;;;;;;;;;;;;;;;;;;6249422;23;19935;-73
2022/02/22 08:30:07;;;;;;;;;;;;;;;;;;6221378;23;19906;-74
2022/02/22 08:32:32;;;;;;;;;;;;;;;;;;6222273;23;19900;-73
2022/02/22 08:34:58;;;;;;;;;;;;;;;;;;6248430;23;19907;-73
2022/02/22 08:37:24;;;;;;;;;;;;;;;;;;6221234;23;20244;-73
2022/02/22 08:39:49;;;;;;;;;;;;;;;;;;6221492;23;20045;-74
2022/02/22 08:42:15;;;;;;;;;;;;;;;;;;6222601;23;19934;-74
2022/02/22 08:44:41;;;;;;;;;;;;;;;;;;6248759;23;20257;-74
2022/02/22 08:47:07;;;;;;;;;;;;;;;;;;6247662;23;20183;-74
2022/02/22 08:49:33;;;;;;;;;;;;;;;;;;6248585;23;20051;-74
2022/02/22 08:51:59;;;;;;;;;;;;;;;;;;6247946;23;19900;-74
2022/02/22 08:54:25;;;;;;;;;;;;;;;;;;6248866;23;20221;-74
2022/02/22 08:56:51;;;;;;;;;;;;;;;;;;6248256;23;19957;-74
2022/02/22 08:59:16;;;;;;;;;;;;;;;;;;6248656;23;19956;-74
2022/02/22 09:01:42;;;;;;;;;;;;;;;;;;6221075;23;19907;-73
2022/02/22 09:04:08;;;;;;;;;;;;;;;;;;6222508;23;19918;-73
2022/02/22 09:06:34;;;;;;;;;;;;;;;;;;6248105;23;20255;-74
2022/02/22 09:08:59;;;;;;;;;;;;;;;;;;6248106;23;19970;-73
2022/02/22 09:11:25;;;;;;;;;;;;;;;;;;6249141;23;19907;-73
2022/02/22 09:13:51;;;;;;;;;;;;;;;;;;6221676;23;19900;-73
2022/02/22 09:16:16;;;;;;;;;;;;;;;;;;6246845;23;19946;-73
2022/02/22 09:18:42;;;;;;;;;;;;;;;;;;6247487;23;19946;-73
2022/02/22 09:21:08;;;;;;;;;;;;;;;;;;6248963;23;19927;-73
2022/02/22 09:23:34;;;;;;;;;;;;;;;;;;6221380;23;20115;-72
2022/02/22 09:26:01;;;;;;;;;;;;;;;;;;6250600;23;19906;-73
2022/02/22 09:28:29;;;;;;;;;;;;;;;;;;6204761;23;19900;-73
2022/02/22 09:30:55;;;;;;;;;;;;;;;;;;6204197;23;19978;-73
2022/02/22 09:33:24;;;;;;;;;;;;;;;;;;6261473;23;19900;-73
2022/02/22 09:35:53;;;;;;;;;;;;;;;;;;6230216;23;19891;-73
2022/02/22 09:38:18;;;;;;;;;;;;;;;;;;6255371;23;20324;-74
2022/02/22 09:40:47;;;;;;;;;;;;;;;;;;6253883;23;19951;-73
2022/02/22 09:43:13;;;;;;;;;;;;;;;;;;6228713;23;20230;-73
2022/02/22 09:45:39;;;;;;;;;;;;;;;;;;6223864;23;19899;-73
2022/02/22 09:48:05;;;;;;;;;;;;;;;;;;6222833;23;19959;-73
2022/02/22 09:50:37;;;;;;;;;;;;;;;;;;5071391;28;19939;-73
2022/02/22 09:53:03;;;;;;;;;;;;;;;;;;5074004;27;20003;-73
2022/02/22 09:55:29;;;;;;;;;;;;;;;;;;5071348;27;20322;-73
2022/02/22 09:57:54;;;;;;;;;;;;;;;;;;5141011;27;19909;-74
2022/02/22 10:00:20;;;;;;;;;;;;;;;;;;5070758;27;19909;-72
2022/02/22 10:02:46;;;;;;;;;;;;;;;;;;5140802;27;19948;-74
2022/02/22 10:05:12;;;;;;;;;;;;;;;;;;5072160;27;19916;-72
2022/02/22 10:07:37;;;;;;;;;;;;;;;;;;5071754;27;19909;-73
2022/02/22 10:10:03;;;;;;;;;;;;;;;;;;5071660;27;19917;-73
2022/02/22 10:12:29;;;;;;;;;;;;;;;;;;5141198;27;19916;-74
2022/02/22 10:14:55;;;;;;;;;;;;;;;;;;5141518;27;19954;-74
2022/02/22 10:17:20;;;;;;;;;;;;;;;;;;5141272;27;19909;-73
2022/02/22 10:19:47;;;;;;;;;;;;;;;;;;5071250;27;19908;-74
2022/02/22 10:22:13;;;;;;;;;;;;;;;;;;5143462;27;20180;-73
2022/02/22 10:24:39;;;;;;;;;;;;;;;;;;5071082;27;19919;-73
2022/02/22 10:27:04;;;;;;;;;;;;;;;;;;5140839;27;19908;-73
2022/02/22 10:29:30;;;;;;;;;;;;;;;;;;5072280;27;19955;-74
2022/02/22 10:31:56;;;;;;;;;;;;;;;;;;5141792;27;20310;-73
2022/02/22 10:34:22;;;;;;;;;;;;;;;;;;5072089;27;19908;-73
2022/02/22 10:36:47;;;;;;;;;;;;;;;;;;5072133;27;20291;-74
2022/02/22 10:39:13;;;;;;;;;;;;;;;;;;5142676;27;19909;-73
2022/02/22 10:41:39;;;;;;;;;;;;;;;;;;5077027;27;19913;-73
2022/02/22 10:44:05;;;;;;;;;;;;;;;;;;5141908;27;20016;-73
2022/02/22 10:46:37;;;;;;;;;;;;;;;;;;5141846;27;19995;-73
2022/02/22 10:49:03;;;;;;;;;;;;;;;;;;5071008;28;19920;-73
2022/02/22 10:51:28;;;;;;;;;;;;;;;;;;5140937;27;19936;-73
2022/02/22 10:53:54;;;;;;;;;;;;;;;;;;5139708;27;19995;-73
2022/02/22 10:56:20;;;;;;;;;;;;;;;;;;5070914;27;19915;-73
2022/02/22 10:58:46;;;;;;;;;;;;;;;;;;5072487;27;19908;-73
2022/02/22 11:01:13;;;;;;;;;;;;;;;;;;5063733;27;19953;-74
2022/02/22 11:03:38;;;;;;;;;;;;;;;;;;5129294;27;20314;-73
2022/02/22 11:06:04;;;;;;;;;;;;;;;;;;5057547;28;19908;-73
2022/02/22 11:08:31;;;;;;;;;;;;;;;;;;5057730;28;19928;-73
2022/02/22 11:10:57;;;;;;;;;;;;;;;;;;5059275;27;19909;-74
2022/02/22 11:13:23;;;;;;;;;;;;;;;;;;5059466;28;19965;-73
2022/02/22 11:15:48;;;;;;;;;;;;;;;;;;5057437;28;19944;-73
2022/02/22 11:18:14;;;;;;;;;;;;;;;;;;5056977;28;19924;-73
2022/02/22 11:20:41;;;;;;;;;;;;;;;;;;5057376;28;19921;-74
2022/02/22 11:23:09;;;;;;;;;;;;;;;;;;5126754;27;19908;-73
2022/02/22 11:25:36;;;;;;;;;;;;;;;;;;5125948;27;19999;-73
2022/02/22 11:28:02;;;;;;;;;;;;;;;;;;5056760;28;19912;-74
2022/02/22 11:30:28;;;;;;;;;;;;;;;;;;5124929;27;19921;-74
2022/02/22 11:32:53;;;;;;;;;;;;;;;;;;5125416;27;19947;-73
2022/02/22 11:35:19;;;;;;;;;;;;;;;;;;5056434;28;20010;-74
2022/02/22 11:37:48;;;;;;;;;;;;;;;;;;5055926;28;19909;-73
2022/02/22 11:40:14;;;;;;;;;;;;;;;;;;5055990;28;20320;-74
2022/02/22 11:42:39;;;;;;;;;;;;;;;;;;5056342;28;19951;-73
2022/02/22 11:45:05;;;;;;;;;;;;;;;;;;5056146;28;19946;-73
2022/02/22 11:47:31;;;;;;;;;;;;;;;;;;5124948;27;20331;-74
2022/02/22 11:49:57;;;;;;;;;;;;;;;;;;5056779;28;19921;-73
2022/02/22 11:52:22;;;;;;;;;;;;;;;;;;5125371;27;20264;-74
2022/02/22 11:54:48;;;;;;;;;;;;;;;;;;5055858;28;20008;-73
2022/02/22 11:57:15;;;;;;;;;;;;;;;;;;5055690;28;20242;-74
2022/02/22 11:59:41;;;;;;;;;;;;;;;;;;5125187;27;19913;-72
2022/02/22 12:02:07;;;;;;;;;;;;;;;;;;5125160;27;20338;-74
2022/02/22 12:04:32;;;;;;;;;;;;;;;;;;5056702;28;19961;-72
2022/02/22 12:06:58;;;;;;;;;;;;;;;;;;5055986;28;19912;-74
2022/02/22 12:09:24;;;;;;;;;;;;;;;;;;5109120;28;20331;-73
2022/02/22 12:11:50;;;;;;;;;;;;;;;;;;5055133;28;19955;-72
2022/02/22 12:14:15;;;;;;;;;;;;;;;;;;5124289;27;20302;-72
2022/02/22 12:16:41;;;;;;;;;;;;;;;;;;5054979;28;20310;-72
2022/02/22 12:19:08;;;;;;;;;;;;;;;;;;5055216;28;19909;-73
2022/02/22 12:21:37;;;;;;;;;;;;;;;;;;5107361;28;19916;-72
2022/02/22 12:24:03;;;;;;;;;;;;;;;;;;5055777;28;20352;-72
2022/02/22 12:26:29;;;;;;;;;;;;;;;;;;5124761;27;19938;-72
2022/02/22 12:28:55;;;;;;;;;;;;;;;;;;5123749;27;20318;-72
2022/02/22 12:31:21;;;;;;;;;;;;;;;;;;5055482;28;20232;-73
2022/02/22 12:33:46;;;;;;;;;;;;;;;;;;5055520;28;19991;-72
2022/02/22 12:36:12;;;;;;;;;;;;;;;;;;5054905;28;19962;-72
2022/02/22 12:38:38;;;;;;;;;;;;;;;;;;5055427;28;19909;-72
2022/02/22 12:41:03;;;;;;;;;;;;;;;;;;5124263;27;19915;-72
2022/02/22 12:43:29;;;;;;;;;;;;;;;;;;5055392;28;19909;-72
2022/02/22 12:45:55;;;;;;;;;;;;;;;;;;5055362;28;19909;-72
2022/02/22 12:48:21;;;;;;;;;;;;;;;;;;5055047;28;19909;-72
2022/02/22 12:50:46;;;;;;;;;;;;;;;;;;5055327;28;19913;-72
2022/02/22 12:53:12;;;;;;;;;;;;;;;;;;5055510;28;20317;-72
2022/02/22 12:55:38;;;;;;;;;;;;;;;;;;5123826;27;19909;-72
2022/02/22 12:58:03;;;;;;;;;;;;;;;;;;5055187;28;19944;-72
2022/02/22 13:00:29;;;;;;;;;;;;;;;;;;5123114;27;19920;-72
2022/02/22 13:02:55;;;;;;;;;;;;;;;;;;5054663;28;20004;-72
2022/02/22 13:05:20;;;;;;;;;;;;;;;;;;5055024;28;20306;-72
2022/02/22 13:07:49;;;;;;;;;;;;;;;;;;5124039;27;19915;-72
2022/02/22 13:10:17;;;;;;;;;;;;;;;;;;5124391;27;19956;-72
2022/02/22 13:12:43;;;;;;;;;;;;;;;;;;5123764;27;19954;-73
2022/02/22 13:15:15;;;;;;;;;;;;;;;;;;5055040;28;20306;-72
2022/02/22 13:17:40;;;;;;;;;;;;;;;;;;5054410;28;19951;-73
2022/02/22 13:20:06;;;;;;;;;;;;;;;;;;5123666;27;19944;-72
2022/02/22 13:22:32;;;;;;;;;;;;;;;;;;5054930;28;19944;-72
2022/02/22 13:24:58;;;;;;;;;;;;;;;;;;5055066;28;20289;-72
2022/02/22 13:27:23;;;;;;;;;;;;;;;;;;5055595;28;20329;-72
2022/02/22 13:29:49;;;;;;;;;;;;;;;;;;5054132;28;20337;-72
2022/02/22 13:32:15;;;;;;;;;;;;;;;;;;5054024;28;19916;-72
2022/02/22 13:34:40;;;;;;;;;;;;;;;;;;5054693;28;19909;-72
2022/02/22 13:37:09;;;;;;;;;;;;;;;;;;5123178;27;19909;-72
2022/02/22 13:39:34;;;;;;;;;;;;;;;;;;5053877;28;20053;-72
2022/02/22 13:42:02;;;;;;;;;;;;;;;;;;5054566;28;19953;-72
2022/02/22 13:44:28;;;;;;;;;;;;;;;;;;5123387;27;19966;-72
2022/02/22 13:46:53;;;;;;;;;;;;;;;;;;5054515;28;19969;-72
2022/02/22 13:49:19;;;;;;;;;;;;;;;;;;5122311;28;20007;-72
2022/02/22 13:51:45;;;;;;;;;;;;;;;;;;5122577;28;19909;-72
2022/02/22 13:54:11;;;;;;;;;;;;;;;;;;5054349;28;19912;-72
2022/02/22 13:56:37;;;;;;;;;;;;;;;;;;5122957;28;19909;-72
2022/02/22 13:59:02;;;;;;;;;;;;;;;;;;5053763;28;19915;-72
2022/02/22 14:01:28;;;;;;;;;;;;;;;;;;5054271;28;19913;-72
2022/02/22 14:03:54;;;;;;;;;;;;;;;;;;5054438;28;19934;-72
2022/02/22 14:06:20;;;;;;;;;;;;;;;;;;5054218;28;19909;-72
2022/02/22 14:08:47;;;;;;;;;;;;;;;;;;5053463;28;19979;-72
2022/02/22 14:11:13;;;;;;;;;;;;;;;;;;5054243;28;19953;-72
2022/02/22 14:13:39;;;;;;;;;;;;;;;;;;5054088;28;19996;-72
2022/02/22 14:16:05;;;;;;;;;;;;;;;;;;5054072;28;19909;-72
2022/02/22 14:18:31;;;;;;;;;;;;;;;;;;5053634;28;19913;-72
2022/02/22 14:20:57;;;;;;;;;;;;;;;;;;5123346;28;19909;-72
2022/02/22 14:23:25;;;;;;;;;;;;;;;;;;5122892;28;20290;-72
2022/02/22 14:25:51;;;;;;;;;;;;;;;;;;5122833;28;19909;-72
2022/02/22 14:28:16;;;;;;;;;;;;;;;;;;5123854;28;20347;-72
2022/02/22 14:30:42;;;;;;;;;;;;;;;;;;5122730;28;19917;-72
2022/02/22 14:33:08;;;;;;;;;;;;;;;;;;5123017;28;19912;-72
2022/02/22 14:35:34;;;;;;;;;;;;;;;;;;5054702;28;20298;-72
2022/02/22 14:38:00;;;;;;;;;;;;;;;;;;5126833;27;19959;-73
2022/02/22 14:40:25;;;;;;;;;;;;;;;;;;5057434;28;19908;-73
2022/02/22 14:42:51;;;;;;;;;;;;;;;;;;5057338;28;19913;-72
2022/02/22 14:45:17;;;;;;;;;;;;;;;;;;5057034;28;19932;-72
2022/02/22 14:47:43;;;;;;;;;;;;;;;;;;5057176;28;20021;-72
2022/02/22 14:50:09;;;;;;;;;;;;;;;;;;5126195;27;20043;-72
2022/02/22 14:52:34;;;;;;;;;;;;;;;;;;5125678;27;20349;-72
2022/02/22 14:55:00;;;;;;;;;;;;;;;;;;5109504;28;19995;-72
2022/02/22 14:57:26;;;;;;;;;;;;;;;;;;5125817;27;19920;-72
2022/02/22 14:59:52;;;;;;;;;;;;;;;;;;5133354;27;19916;-72
2022/02/22 15:02:17;;;;;;;;;;;;;;;;;;5057033;28;19909;-72
2022/02/22 15:04:43;;;;;;;;;;;;;;;;;;5056963;28;19909;-72
2022/02/22 15:07:09;;;;;;;;;;;;;;;;;;5109417;28;19919;-71
2022/02/22 15:09:35;;;;;;;;;;;;;;;;;;5108995;27;19917;-71
2022/02/22 15:12:02;;;;;;;;;;;;;;;;;;5126055;27;19916;-71
2022/02/22 15:14:29;;;;;;;;;;;;;;;;;;5063386;27;19919;-71
2022/02/22 15:16:55;;;;;;;;;;;;;;;;;;5066549;28;20238;-71
2022/02/22 15:19:21;;;;;;;;;;;;;;;;;;5066713;28;19961;-72
2022/02/22 15:21:47;;;;;;;;;;;;;;;;;;5066279;28;19940;-72
2022/02/22 15:24:12;;;;;;;;;;;;;;;;;;5060755;28;20310;-71
2022/02/22 15:26:38;;;;;;;;;;;;;;;;;;5056655;28;19912;-72
2022/02/22 15:29:04;;;;;;;;;;;;;;;;;;5060539;28;19979;-72
2022/02/22 15:31:31;;;;;;;;;;;;;;;;;;5135543;27;19916;-71
2022/02/22 15:33:57;;;;;;;;;;;;;;;;;;5064112;28;19909;-72
2022/02/22 15:36:24;;;;;;;;;;;;;;;;;;5124852;27;19916;-72
2022/02/22 15:38:50;;;;;;;;;;;;;;;;;;5056530;28;19908;-72
2022/02/22 15:41:16;;;;;;;;;;;;;;;;;;5057079;27;19909;-71
2022/02/22 15:43:42;;;;;;;;;;;;;;;;;;5056870;27;19909;-71
2022/02/22 15:46:09;;;;;;;;;;;;;;;;;;5124328;27;19920;-72
2022/02/22 15:48:35;;;;;;;;;;;;;;;;;;5124529;27;19917;-72
2022/02/22 15:51:01;;;;;;;;;;;;;;;;;;5125469;27;19912;-72
2022/02/22 15:53:28;;;;;;;;;;;;;;;;;;5108546;28;19977;-72
2022/02/22 15:55:57;;;;;;;;;;;;;;;;;;5057155;28;19909;-72
2022/02/22 15:58:23;;;;;;;;;;;;;;;;;;5124955;27;19961;-72
2022/02/22 16:00:49;;;;;;;;;;;;;;;;;;5056248;28;19913;-72
2022/02/22 16:03:15;;;;;;;;;;;;;;;;;;5125071;27;19909;-72
2022/02/22 16:05:40;;;;;;;;;;;;;;;;;;5130962;27;19909;-72
2022/02/22 16:08:06;;;;;;;;;;;;;;;;;;5065982;28;19930;-71
2022/02/22 16:10:32;;;;;;;;;;;;;;;;;;5065849;28;19917;-72
2022/02/22 16:12:58;;;;;;;;;;;;;;;;;;5066162;28;19909;-71
2022/02/22 16:15:27;;;;;;;;;;;;;;;;;;5129627;27;19969;-72
2022/02/22 16:17:54;;;;;;;;;;;;;;;;;;5124355;27;20229;-73
2022/02/22 16:20:20;;;;;;;;;;;;;;;;;;5127465;27;20007;-72
2022/02/22 16:22:46;;;;;;;;;;;;;;;;;;5056155;27;19989;-71
2022/02/22 16:25:12;;;;;;;;;;;;;;;;;;5055857;28;19913;-71
2022/02/22 16:27:37;;;;;;;;;;;;;;;;;;5056038;28;19923;-72
2022/02/22 16:30:03;;;;;;;;;;;;;;;;;;5125729;27;19917;-71
2022/02/22 16:32:29;;;;;;;;;;;;;;;;;;5056207;28;19955;-71
2022/02/22 16:34:58;;;;;;;;;;;;;;;;;;5125276;27;19909;-71
2022/02/22 16:37:24;;;;;;;;;;;;;;;;;;5056085;28;19908;-71